Portland, Oregon
Traffic Map
Current Weather Conditions
Portland, Oregon
Few Clouds
Few Clouds
11°
Feels Like: 11°
Wind Chill: 11° Ceiling: Unl
Heat Index: 11° Visibility: 10mi
Dew Point: Wind: 0mph
Humidity: 77% Direction: ° ()
Pressure: 30.28in Gusts: 0mph
Raw Report DataKPDX 292153Z 00000KT 10SM FEW010 FEW180 11/07 A3028 RMK AO2 SLP254 T01060067 $
Traffic Incident Summary
Active as of:
Severity:
Category:
InformationThere was an issue retrieving the traffic information for this location. Please try a different location or try again shortly.
Advertisements
Track Severe Weather on mobile